Time;durP1;ratioP1;P1;durP2;ratioP2;P2;SDS_P1;SDS_P2;PMS_P1;PMS_P2;Temp;Humidity;BMP_temperature;BMP_pressure;BME280_temperature;BME280_humidity;BME280_pressure;Samples;Min_cycle;Max_cycle;Signal;HPM_P1;HPM_P2
2021/04/01 00:00:23;;;;;;;62.38;33.40;;;17.20;46.80;;;;;;4967984;28;20042;-62
2021/04/01 00:02:53;;;;;;;61.35;32.95;;;17.20;46.90;;;;;;4969266;28;20049;-63
2021/04/01 00:05:23;;;;;;;58.55;31.23;;;17.10;47.00;;;;;;4961769;28;20655;-63
2021/04/01 00:07:49;;;;;;;62.80;32.60;;;17.00;47.20;;;;;;4963011;28;20794;-62
2021/04/01 00:10:19;;;;;;;58.83;30.83;;;17.00;47.40;;;;;;4960300;28;20035;-63
2021/04/01 00:12:45;;;;;;;62.65;33.10;;;17.00;47.80;;;;;;4977595;28;20405;-63
2021/04/01 00:15:14;;;;;;;61.95;33.10;;;17.00;47.70;;;;;;4965894;28;20039;-63
2021/04/01 00:17:43;;;;;;;63.40;33.05;;;17.00;47.90;;;;;;4945801;28;20058;-63
2021/04/01 00:20:12;;;;;;;64.95;34.45;;;17.00;48.00;;;;;;4955825;28;20120;-63
2021/04/01 00:22:40;;;;;;;66.80;33.97;;;17.10;47.90;;;;;;4962522;28;20126;-63
2021/04/01 00:25:07;;;;;;;60.85;30.23;;;17.10;47.70;;;;;;4944888;28;20607;-63
2021/04/01 00:27:33;;;;;;;67.28;32.35;;;17.00;48.00;;;;;;4952730;28;20065;-63
2021/04/01 00:29:58;;;;;;;54.38;28.88;;;17.00;48.10;;;;;;4959474;28;20504;-62
2021/04/01 00:32:26;;;;;;;57.83;29.90;;;17.00;48.30;;;;;;4957038;28;20161;-63
2021/04/01 00:34:52;;;;;;;54.70;30.23;;;17.00;48.60;;;;;;4957432;28;20053;-63
2021/04/01 00:37:18;;;;;;;61.08;31.58;;;17.00;48.50;;;;;;4975819;28;20050;-64
2021/04/01 00:39:43;;;;;;;59.97;33.05;;;17.00;48.30;;;;;;4952599;28;20049;-63
2021/04/01 00:42:12;;;;;;;60.65;31.92;;;17.00;48.10;;;;;;4959039;28;20046;-63
2021/04/01 00:44:40;;;;;;;66.22;32.45;;;17.00;47.80;;;;;;4943929;28;20043;-62
2021/04/01 00:47:07;;;;;;;57.17;30.40;;;17.00;47.70;;;;;;4969603;28;20093;-63
2021/04/01 00:49:35;;;;;;;57.28;30.63;;;17.00;48.20;;;;;;4960537;28;20038;-63
2021/04/01 00:52:05;;;;;;;58.17;30.77;;;16.90;48.50;;;;;;4956001;28;20042;-62
2021/04/01 00:54:31;;;;;;;60.42;30.80;;;16.90;48.90;;;;;;4966203;28;20274;-62
2021/04/01 00:56:57;;;;;;;58.38;32.03;;;16.90;48.80;;;;;;4964758;28;20045;-63
2021/04/01 00:59:25;;;;;;;62.50;31.88;;;17.00;48.70;;;;;;4949502;28;20252;-63
2021/04/01 01:01:59;;;;;;;61.60;31.75;;;16.90;48.30;;;;;;4975817;28;20038;-62
2021/04/01 01:04:24;;;;;;;56.72;30.70;;;16.90;48.30;;;;;;4959896;28;20212;-63
2021/04/01 01:06:53;;;;;;;61.63;33.13;;;16.90;48.50;;;;;;4962039;28;20531;-62
2021/04/01 01:09:19;;;;;;;62.25;32.33;;;16.90;48.30;;;;;;4962690;28;20042;-64
2021/04/01 01:11:46;;;;;;;60.75;32.03;;;16.90;48.10;;;;;;4964606;28;20541;-63
2021/04/01 01:14:12;;;;;;;61.55;31.95;;;16.90;48.10;;;;;;4960642;28;20430;-63
2021/04/01 01:16:40;;;;;;;64.43;31.85;;;16.90;48.30;;;;;;4971923;28;20034;-63
2021/04/01 01:19:06;;;;;;;60.80;31.10;;;16.90;48.60;;;;;;4989654;28;20085;-62
2021/04/01 01:21:34;;;;;;;55.78;30.23;;;16.90;48.60;;;;;;4965380;28;20030;-64
2021/04/01 01:24:02;;;;;;;59.95;32.15;;;16.90;48.60;;;;;;4969233;28;20069;-66
2021/04/01 01:26:30;;;;;;;65.93;32.05;;;16.90;48.40;;;;;;4968592;28;20143;-64
2021/04/01 01:29:00;;;;;;;59.30;30.48;;;16.90;48.30;;;;;;4965287;28;20474;-65
2021/04/01 01:31:26;;;;;;;58.25;29.55;;;16.90;48.50;;;;;;4974104;28;20216;-65
2021/04/01 01:33:55;;;;;;;58.78;30.58;;;16.90;48.50;;;;;;4976599;28;20035;-66
2021/04/01 01:36:21;;;;;;;51.17;28.23;;;16.90;48.80;;;;;;4977637;28;20398;-65
2021/04/01 01:38:49;;;;;;;57.78;28.65;;;16.80;48.90;;;;;;4969856;28;20369;-62
2021/04/01 01:41:15;;;;;;;60.53;30.02;;;16.80;49.00;;;;;;4972089;28;20096;-61
2021/04/01 01:43:41;;;;;;;64.45;32.05;;;16.80;49.40;;;;;;4979081;28;20034;-64
2021/04/01 01:46:06;;;;;;;55.80;29.60;;;16.80;49.40;;;;;;4981837;28;20535;-64
2021/04/01 01:48:32;;;;;;;58.45;30.77;;;16.80;49.40;;;;;;4972400;28;20031;-63
2021/04/01 01:51:02;;;;;;;53.25;30.17;;;16.70;49.30;;;;;;4973099;28;20065;-61
2021/04/01 01:53:30;;;;;;;51.95;28.48;;;16.70;49.30;;;;;;4972987;28;20038;-61
2021/04/01 01:55:57;;;;;;;61.63;31.92;;;16.70;49.90;;;;;;4981861;28;20037;-63
2021/04/01 01:58:23;;;;;;;61.42;32.10;;;16.60;49.60;;;;;;4979692;28;20096;-62
2021/04/01 02:00:54;;;;;;;69.15;35.55;;;16.70;49.50;;;;;;4986152;28;20041;-62
2021/04/01 02:03:25;;;;;;;67.03;34.88;;;16.70;49.00;;;;;;4974149;28;20095;-62
2021/04/01 02:05:53;;;;;;;64.25;31.88;;;16.70;48.70;;;;;;4973212;28;20042;-63
2021/04/01 02:08:24;;;;;;;66.45;34.13;;;16.70;48.50;;;;;;4975097;28;20045;-62
2021/04/01 02:10:51;;;;;;;65.70;32.92;;;16.70;48.30;;;;;;4973865;28;20045;-63
2021/04/01 02:13:23;;;;;;;66.90;33.80;;;16.70;48.30;;;;;;4974122;28;20488;-64
2021/04/01 02:15:52;;;;;;;61.50;32.95;;;16.70;48.20;;;;;;4977635;28;20181;-63
2021/04/01 02:18:22;;;;;;;73.38;35.33;;;16.70;48.10;;;;;;4958817;28;21485;-64
2021/04/01 02:20:49;;;;;;;78.13;35.65;;;16.70;47.90;;;;;;4974741;28;20114;-63
2021/04/01 02:23:22;;;;;;;66.78;34.17;;;16.70;47.70;;;;;;4967503;28;20038;-64
2021/04/01 02:25:49;;;;;;;63.10;33.63;;;16.70;47.90;;;;;;4973760;28;20065;-63
2021/04/01 02:28:21;;;;;;;60.38;32.00;;;16.60;47.90;;;;;;4975249;28;20042;-62
2021/04/01 02:30:49;;;;;;;56.63;30.67;;;16.60;48.30;;;;;;4983628;28;20043;-62
2021/04/01 02:33:18;;;;;;;61.55;32.63;;;16.50;48.60;;;;;;4966430;28;24049;-63
2021/04/01 02:35:46;;;;;;;69.65;34.25;;;16.40;48.60;;;;;;4967547;28;20034;-64
2021/04/01 02:38:14;;;;;;;62.53;31.30;;;16.30;48.40;;;;;;4969239;28;20043;-63
2021/04/01 02:40:45;;;;;;;60.00;30.45;;;16.30;48.80;;;;;;4978474;28;20031;-62
2021/04/01 02:43:22;;;;;;;57.13;30.08;;;16.30;49.10;;;;;;4973398;28;20680;-61
2021/04/01 02:45:48;;;;;;;55.05;29.55;;;16.20;49.50;;;;;;4970732;28;20042;-63
2021/04/01 02:48:16;;;;;;;68.97;32.85;;;16.20;49.80;;;;;;4981080;28;20056;-62
2021/04/01 02:50:44;;;;;;;71.38;35.22;;;16.20;49.60;;;;;;4975109;28;20859;-63
2021/04/01 02:53:12;;;;;;;67.70;34.80;;;16.20;49.40;;;;;;4974239;28;20208;-63
2021/04/01 02:55:40;;;;;;;71.47;34.60;;;16.20;49.00;;;;;;4979565;28;20061;-62
2021/04/01 02:58:06;;;;;;;68.20;35.22;;;16.10;48.70;;;;;;4984101;28;20041;-63
2021/04/01 03:00:32;;;;;;;73.28;35.70;;;16.10;48.20;;;;;;4975457;28;20492;-62
2021/04/01 03:03:16;;;;;;;76.25;36.60;;;16.10;48.10;;;;;;4981457;28;20029;-62
2021/04/01 03:05:43;;;;;;;71.35;35.50;;;16.20;47.70;;;;;;4981284;28;20138;-63
2021/04/01 03:08:14;;;;;;;65.38;33.92;;;16.20;47.30;;;;;;4974264;28;20034;-61
2021/04/01 03:10:39;;;;;;;70.35;34.97;;;16.30;47.10;;;;;;4970395;28;20451;-62
2021/04/01 03:13:05;;;;;;;74.90;34.03;;;16.30;47.00;;;;;;4981890;28;20034;-62
2021/04/01 03:15:30;;;;;;;70.22;35.65;;;16.30;46.80;;;;;;4974571;28;20038;-61
2021/04/01 03:17:56;;;;;;;74.40;33.85;;;16.30;46.90;;;;;;4975521;28;20487;-63
2021/04/01 03:20:24;;;;;;;68.57;35.13;;;16.30;46.90;;;;;;4974175;28;20049;-63
2021/04/01 03:22:52;;;;;;;70.18;34.83;;;16.20;46.60;;;;;;4974795;28;20080;-62
2021/04/01 03:25:20;;;;;;;71.75;35.20;;;16.30;46.90;;;;;;4975878;28;20089;-62
2021/04/01 03:27:45;;;;;;;68.65;34.72;;;16.30;46.70;;;;;;4977758;28;20034;-62
2021/04/01 03:30:13;;;;;;;71.32;35.05;;;16.20;46.50;;;;;;4968086;28;20550;-61
2021/04/01 03:32:41;;;;;;;69.88;34.28;;;16.30;46.40;;;;;;4966661;28;20030;-63
2021/04/01 03:35:09;;;;;;;71.60;35.72;;;16.30;46.20;;;;;;4977065;28;20034;-63
2021/04/01 03:37:36;;;;;;;69.32;35.30;;;16.30;46.40;;;;;;4980524;28;20226;-63
2021/04/01 03:40:03;;;;;;;75.65;37.58;;;16.30;46.80;;;;;;4975576;28;20415;-63
2021/04/01 03:42:35;;;;;;;81.15;37.20;;;16.30;46.90;;;;;;4986071;28;20393;-63
2021/04/01 03:45:03;;;;;;;78.60;37.35;;;16.30;46.20;;;;;;4979596;28;20038;-63
2021/04/01 03:47:28;;;;;;;78.78;37.30;;;16.30;45.70;;;;;;4975048;28;20044;-63
2021/04/01 03:49:54;;;;;;;84.50;38.05;;;16.30;45.30;;;;;;4975764;28;20046;-62
2021/04/01 03:52:19;;;;;;;88.93;39.80;;;16.40;45.10;;;;;;4973638;28;20038;-62
2021/04/01 03:54:55;;;;;;;88.07;39.35;;;16.40;44.80;;;;;;4977540;28;20599;-62
2021/04/01 03:57:25;;;;;;;92.10;41.08;;;16.40;44.70;;;;;;4978869;28;20070;-63
2021/04/01 04:00:27;;;;;;;91.65;41.33;;;16.40;44.70;;;;;;4975835;28;20309;-62
2021/04/01 04:03:04;;;;;;;93.22;40.17;;;16.40;44.90;;;;;;4970406;28;20113;-63
2021/04/01 04:10:49;;;;;;;99.05;43.08;;;16.40;44.50;;;;;;4984373;28;20045;-62
2021/04/01 04:13:27;;;;;;;101.75;43.97;;;16.40;44.70;;;;;;4972540;28;20191;-64
2021/04/01 04:15:48;;;;;;;106.28;44.53;;;16.40;44.50;;;;;;4975091;28;20038;-63
2021/04/01 04:18:14;;;;;;;99.88;45.05;;;16.50;44.30;;;;;;4970100;28;20569;-62
2021/04/01 04:20:41;;;;;;;100.80;44.78;;;16.50;44.00;;;;;;4979786;28;20034;-62
2021/04/01 04:23:09;;;;;;;110.25;44.60;;;16.50;44.00;;;;;;4969778;28;20043;-61
2021/04/01 04:25:36;;;;;;;104.63;46.00;;;16.50;43.90;;;;;;4980943;28;20046;-63
2021/04/01 04:28:17;;;;;;;97.50;45.55;;;16.50;43.80;;;;;;4963327;28;20093;-62
2021/04/01 04:30:45;;;;;;;105.60;45.60;;;16.50;43.80;;;;;;4968371;28;20590;-63
2021/04/01 04:33:11;;;;;;;103.85;46.45;;;16.50;43.80;;;;;;4969843;28;20392;-63
2021/04/01 04:35:37;;;;;;;112.10;47.38;;;16.50;44.00;;;;;;4973222;28;20041;-62
2021/04/01 04:38:05;;;;;;;111.00;50.00;;;16.50;43.90;;;;;;4968904;28;20043;-62
2021/04/01 04:40:30;;;;;;;104.90;48.35;;;16.50;43.90;;;;;;4983548;28;20042;-63
2021/04/01 04:42:58;;;;;;;114.20;49.60;;;16.50;44.10;;;;;;4971964;28;20042;-62
2021/04/01 04:45:24;;;;;;;111.93;49.58;;;16.40;44.00;;;;;;4972438;28;20791;-62
2021/04/01 04:47:52;;;;;;;115.05;50.65;;;16.50;44.20;;;;;;4959882;28;20046;-63
2021/04/01 04:50:18;;;;;;;111.43;51.42;;;16.40;44.20;;;;;;4973033;28;20209;-64
2021/04/01 04:52:45;;;;;;;113.30;53.30;;;16.40;44.10;;;;;;4982272;23;20059;-63
2021/04/01 04:55:12;;;;;;;117.90;54.08;;;16.40;44.30;;;;;;4966634;28;20042;-63
2021/04/01 04:57:48;;;;;;;114.90;54.03;;;16.40;44.30;;;;;;4968263;28;20050;-63
2021/04/01 05:05:27;;;;;;;138.55;60.97;;;16.20;44.30;;;;;;4974798;28;20065;-63
2021/04/01 05:07:55;;;;;;;140.25;61.17;;;16.00;44.50;;;;;;4972199;28;20591;-63
2021/04/01 05:10:20;;;;;;;150.98;64.60;;;15.90;44.60;;;;;;4972857;28;20046;-63
2021/04/01 05:12:50;;;;;;;150.90;65.68;;;15.80;44.80;;;;;;4969706;28;20050;-63
2021/04/01 05:15:17;;;;;;;154.63;65.47;;;15.70;45.10;;;;;;4970863;28;23140;-64
2021/04/01 05:17:42;;;;;;;153.80;65.35;;;15.70;45.30;;;;;;4969324;28;20068;-63
2021/04/01 05:20:09;;;;;;;158.93;64.47;;;15.60;45.50;;;;;;4970386;28;20035;-63
2021/04/01 05:25:05;;;;;;;152.88;66.05;;;15.60;45.90;;;;;;4970503;28;20443;-63
2021/04/01 05:27:40;;;;;;;151.57;67.25;;;15.50;46.00;;;;;;4957534;28;20133;-63
2021/04/01 05:30:08;;;;;;;155.40;66.57;;;15.50;46.20;;;;;;4970046;28;20145;-63
2021/04/01 05:32:37;;;;;;;155.35;68.00;;;15.50;46.50;;;;;;4975268;28;20045;-63
2021/04/01 05:35:07;;;;;;;148.98;67.15;;;15.50;46.70;;;;;;4976016;28;20042;-63
2021/04/01 05:37:33;;;;;;;157.05;68.47;;;15.50;46.90;;;;;;4971183;28;20054;-63
2021/04/01 05:40:01;;;;;;;158.82;67.63;;;15.50;47.00;;;;;;4976846;28;20030;-63
2021/04/01 05:42:34;;;;;;;163.77;68.18;;;15.50;47.20;;;;;;4984160;28;20053;-63
2021/04/01 05:45:05;;;;;;;158.13;66.82;;;15.50;47.20;;;;;;4981344;28;20077;-63
2021/04/01 05:47:38;;;;;;;164.48;70.18;;;15.50;47.30;;;;;;4977284;28;20030;-63
2021/04/01 05:50:35;;;;;;;156.90;68.30;;;15.50;47.40;;;;;;4976056;28;20045;-63
2021/04/01 05:53:48;;;;;;;156.32;65.65;;;15.50;47.50;;;;;;4976891;28;20069;-63
2021/04/01 05:58:12;;;;;;;162.90;69.28;;;15.60;47.90;;;;;;4976601;28;20066;-63
2021/04/01 06:03:48;;;;;;;164.60;70.55;;;15.60;48.00;;;;;;4973584;28;20045;-63
2021/04/01 06:06:27;;;;;;;164.60;71.97;;;15.60;48.00;;;;;;4975698;28;20411;-63
2021/04/01 06:09:01;;;;;;;162.88;72.93;;;15.60;48.20;;;;;;4976961;28;20455;-63
2021/04/01 06:11:32;;;;;;;167.25;72.90;;;15.60;48.40;;;;;;4970649;28;20043;-63
2021/04/01 06:14:13;;;;;;;161.70;70.95;;;15.50;48.50;;;;;;4976181;28;20555;-63
2021/04/01 06:16:44;;;;;;;160.50;70.15;;;15.40;48.80;;;;;;4978843;28;20073;-63
2021/04/01 06:19:15;;;;;;;123.10;58.83;;;15.40;49.20;;;;;;4973000;28;21671;-63
2021/04/01 06:21:50;;;;;;;132.75;61.20;;;15.30;49.40;;;;;;4976685;28;20085;-63
2021/04/01 06:24:27;;;;;;;131.10;60.20;;;15.30;49.70;;;;;;4961751;28;21164;-64
2021/04/01 06:26:58;;;;;;;123.35;55.92;;;15.20;49.80;;;;;;4960842;28;20055;-63
2021/04/01 06:29:27;;;;;;;118.88;55.55;;;15.20;50.10;;;;;;4963038;28;20058;-63
2021/04/01 06:31:54;;;;;;;111.40;49.03;;;15.20;50.30;;;;;;4963401;28;20066;-63
2021/04/01 06:34:50;;;;;;;109.80;47.63;;;15.10;50.40;;;;;;4971868;28;20040;-63
2021/04/01 06:40:04;;;;;;;92.43;40.13;;;15.10;50.70;;;;;;4972492;28;20035;-63
2021/04/01 06:42:37;;;;;;;77.78;35.47;;;15.10;50.90;;;;;;4970021;28;20034;-64
2021/04/01 06:45:08;;;;;;;73.15;32.03;;;15.20;51.00;;;;;;4974030;28;20183;-63
2021/04/01 06:47:37;;;;;;;60.00;25.80;;;15.30;51.00;;;;;;4962874;28;20049;-63
2021/04/01 06:50:20;;;;;;;49.47;23.50;;;15.40;50.70;;;;;;4978767;28;20038;-63
2021/04/01 06:53:07;;;;;;;53.47;22.92;;;15.50;50.40;;;;;;4971047;28;20575;-63
2021/04/01 06:55:36;;;;;;;44.83;19.48;;;15.50;50.30;;;;;;4963045;28;20047;-63
2021/04/01 07:03:17;;;;;;;35.55;15.02;;;15.60;49.00;;;;;;4976209;28;20392;-63
2021/04/01 07:08:16;;;;;;;26.63;9.95;;;15.80;49.20;;;;;;4966912;28;20243;-63
2021/04/01 07:13:18;;;;;;;19.13;5.95;;;15.80;48.60;;;;;;4971859;28;20039;-63
2021/04/01 07:15:50;;;;;;;17.95;5.28;;;15.70;48.20;;;;;;4964849;28;20122;-62
2021/04/01 07:21:06;;;;;;;16.05;4.60;;;15.50;48.40;;;;;;4977565;28;20125;-63
2021/04/01 07:48:41;;;;;;;20.60;3.90;;;16.40;47.90;;;;;;4965159;28;20087;-63
2021/04/01 07:51:27;;;;;;;21.50;3.63;;;16.50;47.70;;;;;;4968147;28;20523;-63
2021/04/01 07:53:53;;;;;;;18.77;3.65;;;16.50;47.70;;;;;;4964399;28;20043;-64
2021/04/01 07:56:27;;;;;;;20.10;3.78;;;16.60;47.90;;;;;;4972587;28;20038;-63
2021/04/01 08:04:48;;;;;;;26.25;4.43;;;16.90;47.00;;;;;;4959815;28;20089;-63
2021/04/01 08:07:16;;;;;;;34.80;5.03;;;16.90;47.30;;;;;;4949780;28;20070;-63
2021/04/01 08:09:46;;;;;;;20.20;4.65;;;17.10;47.40;;;;;;4960803;28;20046;-63
2021/04/01 08:12:27;;;;;;;21.40;3.83;;;17.50;47.60;;;;;;4971859;28;20606;-69
2021/04/01 08:14:58;;;;;;;21.17;4.90;;;18.00;46.40;;;;;;4962300;28;20782;-63
2021/04/01 08:17:26;;;;;;;22.00;4.40;;;18.30;45.50;;;;;;4966152;28;20042;-63
2021/04/01 08:19:57;;;;;;;22.25;4.15;;;18.30;44.90;;;;;;4968414;28;20062;-63
2021/04/01 08:22:27;;;;;;;21.17;4.32;;;18.20;45.20;;;;;;4974230;28;20257;-64
2021/04/01 08:25:00;;;;;;;26.88;4.18;;;18.60;45.90;;;;;;4973716;28;20108;-63
2021/04/01 08:27:58;;;;;;;24.65;4.32;;;19.40;44.70;;;;;;4969676;28;20557;-63
2021/04/01 08:33:13;;;;;;;16.88;3.53;;;20.50;42.20;;;;;;4964655;28;20648;-64
2021/04/01 08:35:41;;;;;;;16.67;3.35;;;20.90;41.40;;;;;;4962967;28;20045;-63
2021/04/01 08:38:13;;;;;;;16.08;3.72;;;21.50;40.80;;;;;;4969617;28;20112;-64
2021/04/01 08:40:43;;;;;;;12.38;3.20;;;22.40;39.60;;;;;;4970167;28;20133;-64
2021/04/01 08:43:36;;;;;;;13.13;3.33;;;23.40;37.60;;;;;;4971331;28;20069;-64
2021/04/01 08:46:13;;;;;;;14.27;3.65;;;24.40;36.30;;;;;;4965266;28;20042;-63
2021/04/01 08:48:41;;;;;;;15.20;3.10;;;25.50;33.90;;;;;;4973605;28;20088;-64
2021/04/01 08:51:07;;;;;;;12.15;3.03;;;25.90;32.50;;;;;;4962064;28;20431;-64
2021/04/01 08:53:35;;;;;;;16.45;3.40;;;25.90;31.90;;;;;;4971632;28;20084;-64
2021/04/01 08:56:20;;;;;;;18.45;3.10;;;25.30;31.70;;;;;;4970860;28;20050;-63
2021/04/01 08:59:13;;;;;;;15.88;3.25;;;24.40;32.40;;;;;;4966766;28;20049;-63
2021/04/01 09:01:47;;;;;;;10.75;2.70;;;23.30;34.10;;;;;;4969069;28;20092;-63
2021/04/01 09:04:21;;;;;;;9.95;2.40;;;22.60;35.60;;;;;;4967428;28;20034;-63
2021/04/01 09:06:48;;;;;;;11.10;2.38;;;21.90;36.20;;;;;;4959704;28;20034;-64
2021/04/01 09:09:18;;;;;;;14.55;2.55;;;21.30;36.90;;;;;;4955943;28;20045;-64
2021/04/01 09:11:55;;;;;;;14.07;2.65;;;20.80;37.70;;;;;;4962531;28;20511;-63
2021/04/01 09:14:34;;;;;;;9.77;2.45;;;20.20;38.70;;;;;;4963982;28;20042;-63
2021/04/01 09:17:07;;;;;;;14.65;3.13;;;20.00;39.90;;;;;;4960565;28;20046;-63
2021/04/01 09:19:36;;;;;;;11.82;2.33;;;20.30;40.10;;;;;;4968000;28;20669;-63
2021/04/01 09:22:13;;;;;;;15.45;2.22;;;20.70;39.10;;;;;;4970311;28;20117;-63
2021/04/01 09:24:39;;;;;;;10.43;2.30;;;20.70;38.40;;;;;;4969002;28;20133;-63
2021/04/01 09:27:12;;;;;;;12.32;2.20;;;20.30;38.70;;;;;;4966020;28;20076;-64
2021/04/01 09:29:41;;;;;;;11.90;2.75;;;20.00;39.40;;;;;;4973623;28;20042;-63
2021/04/01 09:32:08;;;;;;;13.65;2.55;;;19.70;39.70;;;;;;4968701;28;20687;-62
2021/04/01 09:34:36;;;;;;;15.82;2.22;;;19.30;40.40;;;;;;4967220;28;20049;-62
2021/04/01 09:37:18;;;;;;;11.90;2.03;;;19.10;41.10;;;;;;4952421;28;20165;-64
2021/04/01 09:39:44;;;;;;;9.90;2.03;;;19.10;41.10;;;;;;4958719;28;20137;-64
2021/04/01 09:42:15;;;;;;;13.00;2.60;;;19.00;41.30;;;;;;4969504;28;20041;-63
2021/04/01 09:44:51;;;;;;;10.57;2.53;;;19.00;41.20;;;;;;4963494;28;20054;-63
2021/04/01 09:47:35;;;;;;;11.38;2.13;;;18.80;41.10;;;;;;4966126;28;20133;-62
2021/04/01 09:50:06;;;;;;;12.88;2.08;;;18.70;41.50;;;;;;4950446;28;20225;-63
2021/04/01 09:52:31;;;;;;;16.23;2.40;;;18.60;41.40;;;;;;4954730;28;20046;-63
2021/04/01 09:55:03;;;;;;;8.70;1.98;;;18.50;42.20;;;;;;4960478;28;20112;-63
2021/04/01 09:57:46;;;;;;;8.38;2.00;;;18.90;42.20;;;;;;4975172;28;20117;-63
2021/04/01 10:00:26;;;;;;;15.02;2.47;;;;;;;;;;4966560;28;20049;-63
2021/04/01 10:03:17;;;;;;;13.30;2.35;;;19.70;41.40;;;;;;4973918;28;20482;-63
2021/04/01 10:05:48;;;;;;;11.90;2.50;;;20.90;37.90;;;;;;4967238;28;20252;-63
2021/04/01 10:08:30;;;;;;;11.98;2.53;;;20.70;38.00;;;;;;4969962;28;20093;-62
2021/04/01 10:11:15;;;;;;;9.75;1.73;;;20.40;38.20;;;;;;4969031;28;20126;-62
2021/04/01 10:13:43;;;;;;;10.13;1.80;;;20.50;38.80;;;;;;4954931;28;20533;-63
2021/04/01 10:16:24;;;;;;;9.38;2.30;;;21.30;38.80;;;;;;4957581;28;20049;-63
2021/04/01 10:18:51;;;;;;;7.80;2.10;;;22.20;36.90;;;;;;4948907;28;20169;-63
2021/04/01 10:21:19;;;;;;;9.35;2.20;;;22.50;35.50;;;;;;4950897;28;20542;-63
2021/04/01 10:23:58;;;;;;;11.43;2.30;;;22.20;35.20;;;;;;4945030;28;20112;-63
2021/04/01 10:26:39;;;;;;;13.98;2.65;;;21.70;35.60;;;;;;4937483;28;20041;-63
2021/04/01 10:29:20;;;;;;;8.45;1.80;;;21.00;36.40;;;;;;4944216;28;20174;-62
2021/04/01 10:31:49;;;;;;;9.93;2.63;;;20.50;37.30;;;;;;4937610;28;20038;-63
2021/04/01 10:34:26;;;;;;;11.48;2.05;;;20.20;38.20;;;;;;4939034;28;20780;-63
2021/04/01 10:36:57;;;;;;;8.35;2.50;;;20.40;38.30;;;;;;4942110;28;20133;-63
2021/04/01 10:39:31;;;;;;;11.40;1.77;;;20.80;37.60;;;;;;4947527;28;20047;-63
2021/04/01 10:41:57;;;;;;;12.55;2.72;;;21.20;36.50;;;;;;4929339;28;20512;-63
2021/04/01 10:44:23;;;;;;;17.80;2.60;;;21.20;36.10;;;;;;4917639;28;20765;-63
2021/04/01 10:46:54;;;;;;;11.60;2.17;;;20.90;36.00;;;;;;4931268;28;20046;-63
2021/04/01 10:49:28;;;;;;;7.55;2.53;;;20.50;36.30;;;;;;4949146;28;20042;-63
2021/04/01 10:51:57;;;;;;;15.85;2.88;;;20.10;36.80;;;;;;4939094;28;20100;-63
2021/04/01 10:56:59;;;;;;;13.68;2.80;;;19.30;38.20;;;;;;4969993;28;20077;-64
2021/04/01 10:59:45;;;;;;;11.45;2.47;;;19.10;39.10;;;;;;4973553;28;20068;-65
2021/04/01 11:02:19;;;;;;;11.13;2.55;;;19.30;38.90;;;;;;4969746;28;20027;-63
2021/04/01 11:04:48;;;;;;;16.23;2.92;;;19.40;38.80;;;;;;5020089;28;20026;-63
2021/04/01 11:07:14;;;;;;;12.43;2.30;;;19.70;38.40;;;;;;5005076;28;20041;-63
2021/04/01 11:09:46;;;;;;;11.73;2.28;;;19.80;37.60;;;;;;5006423;28;20045;-64
2021/04/01 11:12:15;;;;;;;8.80;2.75;;;19.80;37.20;;;;;;5008342;28;20033;-65
2021/04/01 11:14:43;;;;;;;14.90;2.50;;;19.80;36.80;;;;;;5008230;28;20130;-64
2021/04/01 11:17:14;;;;;;;11.35;2.58;;;20.20;37.50;;;;;;5007788;28;20024;-66
2021/04/01 11:19:44;;;;;;;5.88;1.90;;;21.10;36.50;;;;;;5007230;28;20458;-66
2021/04/01 11:22:15;;;;;;;5.88;1.85;;;22.50;34.00;;;;;;5001251;28;20053;-64
2021/04/01 11:24:42;;;;;;;8.38;2.20;;;23.80;32.00;;;;;;5007490;28;20513;-64
2021/04/01 11:27:19;;;;;;;12.35;1.98;;;24.80;29.70;;;;;;5011677;28;20060;-63
2021/04/01 11:29:56;;;;;;;5.85;1.88;;;24.60;28.80;;;;;;5001228;28;20064;-64
2021/04/01 11:32:27;;;;;;;10.50;2.03;;;24.10;29.20;;;;;;5009133;28;20543;-63
2021/04/01 11:34:56;;;;;;;11.35;2.05;;;23.80;29.50;;;;;;4999080;28;20120;-65
2021/04/01 11:37:24;;;;;;;11.15;2.17;;;23.20;29.50;;;;;;5004575;28;20036;-65
2021/04/01 11:39:57;;;;;;;9.27;2.35;;;22.40;30.10;;;;;;5003259;28;20320;-65
2021/04/01 11:42:23;;;;;;;10.63;2.22;;;21.50;31.60;;;;;;5001213;28;20040;-66
2021/04/01 11:44:57;;;;;;;9.52;2.30;;;20.80;32.60;;;;;;5011187;28;20403;-66
2021/04/01 11:47:26;;;;;;;5.68;1.60;;;20.30;34.00;;;;;;5011290;28;20079;-65
2021/04/01 11:49:52;;;;;;;10.80;1.88;;;20.40;34.50;;;;;;5006623;28;20034;-64
2021/04/01 11:52:22;;;;;;;7.75;2.20;;;20.40;34.30;;;;;;5009542;28;20076;-65
2021/04/01 11:54:53;;;;;;;8.05;2.10;;;20.20;34.60;;;;;;5007913;28;20029;-65
2021/04/01 11:57:31;;;;;;;11.57;2.40;;;20.00;35.30;;;;;;5010005;28;20418;-66
2021/04/01 12:00:08;;;;;;;7.55;1.70;;;19.90;35.40;;;;;;5013252;28;20028;-66
2021/04/01 12:03:11;;;;;;;6.22;2.10;;;19.60;35.80;;;;;;5010732;28;20017;-65
2021/04/01 12:05:49;;;;;;;6.30;2.30;;;19.40;36.30;;;;;;5001322;28;20037;-65
2021/04/01 12:08:15;;;;;;;6.47;2.10;;;19.00;36.80;;;;;;5000716;28;20597;-65
2021/04/01 12:10:40;;;;;;;8.32;2.17;;;18.70;37.40;;;;;;5008232;28;20087;-64
2021/04/01 12:13:06;;;;;;;12.00;2.00;;;18.40;38.10;;;;;;5011479;28;20038;-65
2021/04/01 12:15:34;;;;;;;4.63;1.90;;;18.10;38.70;;;;;;5007217;28;20047;-65
2021/04/01 12:18:01;;;;;;;8.77;1.92;;;17.80;39.30;;;;;;5010061;28;20061;-65
2021/04/01 12:20:29;;;;;;;5.97;1.95;;;17.50;39.60;;;;;;5010705;28;20021;-65
2021/04/01 12:22:55;;;;;;;8.40;2.10;;;17.30;40.30;;;;;;5004741;28;20024;-66
2021/04/01 12:25:22;;;;;;;4.85;1.98;;;17.10;40.60;;;;;;5008144;28;20029;-65
2021/04/01 12:27:55;;;;;;;6.30;2.22;;;16.90;41.20;;;;;;5004403;28;20033;-65
2021/04/01 12:30:35;;;;;;;6.22;2.05;;;16.90;41.60;;;;;;5006144;28;20280;-64
2021/04/01 12:33:17;;;;;;;5.20;1.90;;;16.90;41.70;;;;;;5008474;28;20581;-65
2021/04/01 12:35:59;;;;;;;7.85;2.25;;;16.70;41.80;;;;;;5002672;28;20029;-65
2021/04/01 12:38:44;;;;;;;11.30;2.75;;;16.70;42.10;;;;;;5006486;28;20391;-65
2021/04/01 12:41:28;;;;;;;11.73;2.75;;;16.50;42.60;;;;;;5005043;28;21112;-65
2021/04/01 12:43:59;;;;;;;7.20;2.53;;;16.40;42.50;;;;;;5001187;28;20026;-66
2021/04/01 12:46:44;;;;;;;8.40;2.50;;;16.20;43.00;;;;;;5001439;28;20083;-64
2021/04/01 12:49:11;;;;;;;8.45;2.10;;;16.00;43.20;;;;;;5014039;28;20514;-65
2021/04/01 12:51:57;;;;;;;5.82;2.28;;;15.80;43.60;;;;;;5005599;28;20032;-64
2021/04/01 12:54:28;;;;;;;6.28;1.77;;;15.80;44.10;;;;;;5004260;28;20029;-65
2021/04/01 12:57:02;;;;;;;12.32;2.00;;;15.70;44.40;;;;;;5003531;28;20035;-65
2021/04/01 12:59:37;;;;;;;5.50;1.60;;;15.70;44.40;;;;;;5002759;28;21657;-64
2021/04/01 13:02:06;;;;;;;5.32;1.60;;;15.60;44.60;;;;;;5001187;28;20037;-64
2021/04/01 13:04:33;;;;;;;8.80;2.08;;;15.60;44.70;;;;;;4999614;28;20022;-64
2021/04/01 13:07:19;;;;;;;5.75;1.50;;;15.60;44.80;;;;;;5007125;28;20030;-64
2021/04/01 13:12:29;;;;;;;6.35;1.50;;;15.70;44.90;;;;;;5002561;28;20090;-65
2021/04/01 13:14:59;;;;;;;7.35;1.98;;;15.70;45.10;;;;;;5008244;28;20127;-65
2021/04/01 13:17:27;;;;;;;4.88;1.73;;;15.70;45.20;;;;;;5006321;28;20518;-65
2021/04/01 13:19:52;;;;;;;6.32;1.90;;;15.70;45.20;;;;;;5000822;28;20142;-65
2021/04/01 13:22:24;;;;;;;6.03;1.88;;;15.70;45.20;;;;;;5002388;28;20034;-64
2021/04/01 13:27:18;;;;;;;6.15;2.13;;;15.70;45.40;;;;;;4990645;28;20068;-64
2021/04/01 13:29:56;;;;;;;5.82;1.98;;;15.70;45.80;;;;;;5011248;28;20064;-66
2021/04/01 13:35:12;;;;;;;6.60;2.30;;;15.90;45.70;;;;;;5004032;28;20057;-65
2021/04/01 13:38:22;;;;;;;4.20;1.75;;;15.90;45.50;;;;;;4991422;28;20026;-65
2021/04/01 13:40:26;;;;;;;5.28;2.00;;;15.90;45.40;;;;;;5005111;28;20110;-65
2021/04/01 13:42:55;;;;;;;5.35;2.25;;;16.00;45.50;;;;;;5005088;28;20026;-66
2021/04/01 13:45:23;;;;;;;5.80;2.17;;;16.00;45.60;;;;;;5002961;28;20455;-65
2021/04/01 13:47:58;;;;;;;4.55;2.08;;;16.20;45.50;;;;;;5002306;28;20519;-66
2021/04/01 13:50:26;;;;;;;4.10;2.03;;;16.30;45.30;;;;;;5006097;28;20042;-66
2021/04/01 13:53:03;;;;;;;4.22;2.38;;;16.50;45.00;;;;;;5009008;28;20044;-65
2021/04/01 13:55:32;;;;;;;5.38;2.40;;;16.60;44.80;;;;;;5003915;28;20041;-64
2021/04/01 14:09:13;;;;;;;7.50;2.67;;;16.90;43.90;;;;;;5005858;28;20040;-64
2021/04/01 14:11:43;;;;;;;5.53;2.40;;;16.90;44.00;;;;;;5006133;28;20468;-65
2021/04/01 14:14:10;;;;;;;6.10;2.75;;;16.90;43.90;;;;;;5009980;28;20079;-64
2021/04/01 14:16:40;;;;;;;4.25;2.97;;;16.90;43.80;;;;;;5007982;28;20037;-65
2021/04/01 14:19:09;;;;;;;8.70;2.60;;;16.70;43.30;;;;;;5004973;28;20041;-65
2021/04/01 14:21:37;;;;;;;5.60;3.00;;;16.60;44.00;;;;;;5004651;28;20029;-64